Terminal Aerodrome Forecast
Issued by NWS

Home | Current Version | Previous Version | Text Only | Print | Product List | Glossary Off
Versions: 1 2 3 4 5 6 7 8 9 10 11 12 13 14 15 16 17 18

000
FTUS42 KMHX 220110 AAA
TAFOAJ
TAF AMD
KOAJ 220110Z 2201/2224 35009KT P6SM SCT015
     FM220400 36006KT P6SM BKN015
     FM221000 35006KT P6SM SCT030
      AMD LTD TO CLD VIS AND WIND=

USA.gov is the U.S. government's official web portal to all federal, state and local government web resources and services.